Time;durP1;ratioP1;P1;durP2;ratioP2;P2;SDS_P1;SDS_P2;PMS_P1;PMS_P2;Temp;Humidity;BMP_temperature;BMP_pressure;BME280_temperature;BME280_humidity;BME280_pressure;Samples;Min_cycle;Max_cycle;Signal;HPM_P1;HPM_P2
2023/06/23 00:01:01;;;;;;;3.50;0.93;;;17.90;99.90;;;;;;5050438;28;20770;-70
2023/06/23 00:03:26;;;;;;;1.90;0.90;;;17.80;99.90;;;;;;5051369;28;20994;-71
2023/06/23 00:05:52;;;;;;;2.40;0.90;;;17.70;99.90;;;;;;5054362;28;20411;-70
2023/06/23 00:08:18;;;;;;;2.57;1.13;;;17.70;99.90;;;;;;5061747;28;20186;-70
2023/06/23 00:10:43;;;;;;;1.80;1.10;;;17.60;99.90;;;;;;5046384;28;20205;-70
2023/06/23 00:13:10;;;;;;;5.83;1.20;;;17.60;99.90;;;;;;5045989;28;20649;-69
2023/06/23 00:15:36;;;;;;;2.97;1.30;;;17.50;99.90;;;;;;5049918;28;20180;-69
2023/06/23 00:18:02;;;;;;;1.97;1.03;;;17.50;99.90;;;;;;5051289;28;20423;-69
2023/06/23 00:20:27;;;;;;;3.30;1.23;;;17.40;99.90;;;;;;5051050;28;20190;-69
2023/06/23 00:22:53;;;;;;;2.90;1.30;;;17.40;99.90;;;;;;5050917;28;20532;-69
2023/06/23 00:25:19;;;;;;;1.40;0.90;;;17.30;99.90;;;;;;5050307;28;20285;-69
2023/06/23 00:27:45;;;;;;;2.77;1.10;;;17.30;99.90;;;;;;5051268;28;20185;-69
2023/06/23 00:30:11;;;;;;;1.40;0.70;;;17.40;99.90;;;;;;5050452;28;20182;-69
2023/06/23 00:32:38;;;;;;;1.63;0.90;;;17.30;99.90;;;;;;5050177;28;20490;-69
2023/06/23 00:35:05;;;;;;;1.97;1.03;;;17.40;99.90;;;;;;5050229;28;20412;-69
2023/06/23 00:37:31;;;;;;;3.50;0.90;;;17.30;99.90;;;;;;5050962;28;20416;-69
2023/06/23 00:39:56;;;;;;;2.47;1.00;;;17.40;99.90;;;;;;5049928;28;20758;-69
2023/06/23 00:42:23;;;;;;;1.83;0.93;;;17.40;99.90;;;;;;5050401;28;20422;-69
2023/06/23 00:44:48;;;;;;;1.50;0.80;;;17.30;99.90;;;;;;5050248;28;20188;-69
2023/06/23 00:47:15;;;;;;;1.93;0.80;;;17.30;99.90;;;;;;5049832;28;20809;-69
2023/06/23 00:49:42;;;;;;;1.70;0.77;;;17.30;99.90;;;;;;5050263;28;20549;-69
2023/06/23 00:52:09;;;;;;;2.93;0.90;;;17.40;99.90;;;;;;5050007;28;20423;-69
2023/06/23 00:54:36;;;;;;;2.10;1.10;;;17.30;99.90;;;;;;5052506;28;20462;-69
2023/06/23 00:57:05;;;;;;;3.10;1.43;;;17.30;99.90;;;;;;5060948;28;20412;-69
2023/06/23 00:59:31;;;;;;;2.60;0.70;;;17.30;99.90;;;;;;5050023;28;20771;-69
2023/06/23 01:02:01;;;;;;;1.77;1.13;;;17.30;99.90;;;;;;5049476;28;21273;-69
2023/06/23 01:04:28;;;;;;;1.53;0.70;;;17.30;99.90;;;;;;5050095;28;20177;-69
2023/06/23 01:07:05;;;;;;;1.80;0.93;;;17.30;99.90;;;;;;5050666;28;20515;-69
2023/06/23 01:09:57;;;;;;;2.97;0.80;;;17.40;99.90;;;;;;5069496;28;20470;-69
2023/06/23 01:12:26;;;;;;;3.83;1.43;;;17.40;99.90;;;;;;5046310;28;20520;-69
2023/06/23 01:15:05;;;;;;;1.87;1.10;;;17.40;99.90;;;;;;5044398;28;20474;-69
2023/06/23 01:17:36;;;;;;;1.93;1.13;;;17.40;99.90;;;;;;5049951;28;20407;-69
2023/06/23 01:20:21;;;;;;;2.20;1.43;;;17.30;99.90;;;;;;5050242;28;20538;-69
2023/06/23 01:23:18;;;;;;;3.73;1.40;;;17.30;99.90;;;;;;5049461;28;20460;-69
2023/06/23 01:25:46;;;;;;;4.13;1.67;;;17.30;99.90;;;;;;5034907;28;20444;-68
2023/06/23 01:28:18;;;;;;;3.23;1.83;;;17.20;99.90;;;;;;5053785;28;20409;-69
2023/06/23 01:30:53;;;;;;;2.87;1.30;;;17.20;99.90;;;;;;5053515;28;20408;-68
2023/06/23 01:33:23;;;;;;;3.33;1.73;;;17.20;99.90;;;;;;5067437;28;20769;-69
2023/06/23 01:36:03;;;;;;;5.30;2.00;;;16.90;99.90;;;;;;5053712;28;20884;-68
2023/06/23 01:38:38;;;;;;;4.10;1.60;;;16.90;99.90;;;;;;5053918;28;20424;-69
2023/06/23 01:41:11;;;;;;;3.13;1.70;;;16.80;99.90;;;;;;5053425;28;20423;-68
2023/06/23 01:43:38;;;;;;;3.03;1.77;;;16.70;99.90;;;;;;5053514;28;20541;-68
2023/06/23 01:46:14;;;;;;;5.00;2.57;;;16.60;99.90;;;;;;5052777;28;20663;-67
2023/06/23 01:48:44;;;;;;;4.67;1.73;;;16.60;99.90;;;;;;5053795;28;20729;-69
2023/06/23 01:51:11;;;;;;;5.43;2.30;;;16.60;99.90;;;;;;5053138;28;20420;-69
2023/06/23 01:53:38;;;;;;;2.87;1.63;;;16.60;99.90;;;;;;5053816;28;20562;-68
2023/06/23 01:56:07;;;;;;;3.70;1.87;;;16.60;99.90;;;;;;5056011;28;20876;-68
2023/06/23 01:58:36;;;;;;;3.20;1.93;;;16.60;99.90;;;;;;5063991;28;20865;-69
2023/06/23 02:01:04;;;;;;;3.40;1.97;;;16.60;99.90;;;;;;5053084;28;20431;-68
2023/06/23 02:03:31;;;;;;;6.83;2.33;;;16.50;99.90;;;;;;5063691;28;20795;-68
2023/06/23 02:05:58;;;;;;;4.40;1.47;;;16.60;99.90;;;;;;5056368;28;20423;-69
2023/06/23 02:08:25;;;;;;;4.17;1.63;;;16.50;99.90;;;;;;5053144;28;20422;-68
2023/06/23 02:10:53;;;;;;;3.60;1.50;;;16.60;99.90;;;;;;5052178;28;20420;-68
2023/06/23 02:13:20;;;;;;;6.13;1.43;;;16.60;99.90;;;;;;5053156;28;20788;-68
2023/06/23 02:15:50;;;;;;;2.43;0.80;;;16.60;99.90;;;;;;5053192;28;20412;-68
2023/06/23 02:18:17;;;;;;;5.57;1.20;;;16.70;99.90;;;;;;5053548;28;20949;-69
2023/06/23 02:20:44;;;;;;;2.17;1.10;;;16.70;99.90;;;;;;5057806;28;20427;-68
2023/06/23 02:23:10;;;;;;;2.10;1.37;;;16.70;99.90;;;;;;5064737;28;20836;-69
2023/06/23 02:25:39;;;;;;;2.30;1.00;;;16.70;99.90;;;;;;5052520;28;20456;-69
2023/06/23 02:28:05;;;;;;;3.70;1.20;;;16.60;99.90;;;;;;5053349;28;20419;-68
2023/06/23 02:30:32;;;;;;;2.40;1.00;;;16.70;99.90;;;;;;5052721;28;20416;-68
2023/06/23 02:32:57;;;;;;;1.93;0.87;;;16.70;99.90;;;;;;5052707;28;20459;-68
2023/06/23 02:35:23;;;;;;;2.83;1.40;;;16.50;99.90;;;;;;5052760;28;20451;-68
2023/06/23 02:37:54;;;;;;;1.70;0.90;;;16.50;99.90;;;;;;5052371;28;20182;-69
2023/06/23 02:40:22;;;;;;;1.90;0.97;;;16.50;99.90;;;;;;5052209;28;20188;-68
2023/06/23 02:43:05;;;;;;;2.57;0.97;;;16.40;99.90;;;;;;5052664;28;20850;-69
2023/06/23 02:45:38;;;;;;;3.10;1.27;;;16.50;99.90;;;;;;5041978;28;20475;-68
2023/06/23 02:48:09;;;;;;;2.53;1.20;;;16.50;99.90;;;;;;5052189;28;20408;-68
2023/06/23 02:50:36;;;;;;;5.83;1.53;;;16.40;99.90;;;;;;5050178;28;20481;-68
2023/06/23 02:53:09;;;;;;;3.10;1.10;;;16.50;99.90;;;;;;5049158;28;20466;-69
2023/06/23 02:55:39;;;;;;;2.70;1.50;;;16.50;99.90;;;;;;5044713;28;20416;-69
2023/06/23 02:58:09;;;;;;;13.33;1.87;;;16.50;99.90;;;;;;5053106;28;20492;-68
2023/06/23 03:00:37;;;;;;;2.50;1.30;;;16.60;99.90;;;;;;5051952;28;20754;-69
2023/06/23 03:03:07;;;;;;;3.63;1.43;;;16.70;99.90;;;;;;5057957;28;20490;-69
2023/06/23 03:05:33;;;;;;;2.10;1.30;;;16.70;99.90;;;;;;5059165;28;20416;-69
2023/06/23 03:08:00;;;;;;;2.43;1.20;;;16.70;99.90;;;;;;5058666;28;20424;-69
2023/06/23 03:10:28;;;;;;;3.20;1.93;;;16.60;99.90;;;;;;5058528;28;20439;-68
2023/06/23 03:12:53;;;;;;;2.63;1.63;;;16.60;99.90;;;;;;5051704;28;20419;-68
2023/06/23 03:15:20;;;;;;;4.40;1.47;;;16.50;99.90;;;;;;5051755;28;20424;-69
2023/06/23 03:17:47;;;;;;;2.70;1.23;;;16.70;99.90;;;;;;5052071;28;20228;-69
2023/06/23 03:20:26;;;;;;;4.63;2.00;;;16.60;99.90;;;;;;5051893;28;20420;-70
2023/06/23 03:22:59;;;;;;;2.90;1.60;;;16.70;99.90;;;;;;5051289;28;20543;-69
2023/06/23 03:25:26;;;;;;;3.30;1.63;;;16.50;99.90;;;;;;5051649;28;20910;-69
2023/06/23 03:27:56;;;;;;;5.37;1.87;;;16.50;99.90;;;;;;5052345;28;20455;-69
2023/06/23 03:30:28;;;;;;;3.63;1.70;;;16.50;99.90;;;;;;5033975;28;20436;-69
2023/06/23 03:32:59;;;;;;;4.13;2.03;;;16.50;99.90;;;;;;5051482;28;20507;-69
2023/06/23 03:35:33;;;;;;;2.80;1.40;;;16.60;99.90;;;;;;5051790;28;20972;-69
2023/06/23 03:38:01;;;;;;;5.07;2.23;;;16.60;99.90;;;;;;5051144;28;20456;-69
2023/06/23 03:40:33;;;;;;;3.20;1.73;;;16.50;99.90;;;;;;5063900;28;20904;-69
2023/06/23 03:43:22;;;;;;;2.73;1.70;;;16.40;99.90;;;;;;5063524;28;21006;-69
2023/06/23 03:45:54;;;;;;;4.17;2.13;;;16.50;99.90;;;;;;5059289;28;20440;-70
2023/06/23 03:48:22;;;;;;;3.57;2.10;;;16.50;99.90;;;;;;5051447;28;20417;-72
2023/06/23 03:50:50;;;;;;;3.27;2.27;;;16.50;99.90;;;;;;5050763;28;20420;-71
2023/06/23 03:53:17;;;;;;;3.50;2.03;;;16.50;99.90;;;;;;5051082;28;20424;-71
2023/06/23 03:55:45;;;;;;;4.00;2.37;;;16.40;99.90;;;;;;5051227;28;20424;-71
2023/06/23 03:58:12;;;;;;;3.63;1.53;;;16.40;99.90;;;;;;5050342;28;20797;-71
2023/06/23 04:00:40;;;;;;;3.93;2.37;;;16.40;99.90;;;;;;5051016;28;20905;-71
2023/06/23 04:03:08;;;;;;;3.63;2.53;;;16.40;99.90;;;;;;5051159;28;20846;-71
2023/06/23 04:05:37;;;;;;;6.53;3.07;;;16.40;99.90;;;;;;5051351;28;20869;-71
2023/06/23 04:08:06;;;;;;;5.03;3.07;;;16.30;99.90;;;;;;5038512;28;20550;-71
2023/06/23 04:10:33;;;;;;;8.73;3.20;;;16.40;99.90;;;;;;5050618;28;20421;-71
2023/06/23 04:13:01;;;;;;;5.50;3.60;;;16.40;99.90;;;;;;5050947;28;20515;-71
2023/06/23 04:15:28;;;;;;;6.63;3.60;;;16.40;99.90;;;;;;5051283;28;20885;-71
2023/06/23 04:17:56;;;;;;;5.40;3.37;;;16.40;99.90;;;;;;5050939;28;20466;-71
2023/06/23 04:20:24;;;;;;;4.97;3.20;;;16.40;99.90;;;;;;5051135;28;20490;-71
2023/06/23 04:22:53;;;;;;;7.53;3.40;;;16.40;99.90;;;;;;5050541;28;20467;-71
2023/06/23 04:25:20;;;;;;;5.30;3.37;;;16.40;99.90;;;;;;5050247;28;20443;-71
2023/06/23 04:27:49;;;;;;;10.53;4.53;;;16.40;99.90;;;;;;5050579;28;20866;-71
2023/06/23 04:30:18;;;;;;;6.80;3.70;;;16.50;99.90;;;;;;5032860;28;20507;-71
2023/06/23 04:32:44;;;;;;;6.10;4.00;;;16.40;99.90;;;;;;5050456;28;20428;-71
2023/06/23 04:35:10;;;;;;;9.50;5.07;;;16.40;99.90;;;;;;5050740;28;20494;-70
2023/06/23 04:37:46;;;;;;;9.90;4.60;;;16.40;99.90;;;;;;5050853;28;20954;-70
2023/06/23 04:40:34;;;;;;;6.70;4.27;;;16.50;99.90;;;;;;5050155;28;20504;-69
2023/06/23 04:43:09;;;;;;;7.20;4.07;;;16.50;99.90;;;;;;5050364;28;21085;-69
2023/06/23 04:45:40;;;;;;;9.50;5.23;;;16.60;99.90;;;;;;5050750;28;20425;-70
2023/06/23 04:48:09;;;;;;;10.73;6.33;;;16.50;99.90;;;;;;5049205;28;20444;-69
2023/06/23 04:50:35;;;;;;;8.60;4.47;;;16.50;99.90;;;;;;5050175;28;20423;-69
2023/06/23 04:53:05;;;;;;;10.50;5.27;;;16.40;99.90;;;;;;5050652;28;20478;-69
2023/06/23 04:55:34;;;;;;;9.03;5.40;;;16.40;99.90;;;;;;5050111;28;20432;-68
2023/06/23 04:58:03;;;;;;;12.53;5.63;;;16.50;99.90;;;;;;5053650;28;20431;-69
2023/06/23 05:00:30;;;;;;;13.40;6.50;;;16.50;99.90;;;;;;5050232;28;20916;-69
2023/06/23 05:02:57;;;;;;;11.83;5.57;;;16.60;99.90;;;;;;5049746;28;20468;-69
2023/06/23 05:05:27;;;;;;;14.93;4.70;;;16.60;99.90;;;;;;5050065;28;20889;-69
2023/06/23 05:07:55;;;;;;;9.30;4.63;;;16.60;99.90;;;;;;5063757;28;20754;-69
2023/06/23 05:10:23;;;;;;;13.57;6.87;;;16.80;99.90;;;;;;5049752;28;20443;-69
2023/06/23 05:12:51;;;;;;;11.63;6.47;;;16.80;99.90;;;;;;5036373;28;20420;-69
2023/06/23 05:15:21;;;;;;;14.83;6.97;;;16.80;99.90;;;;;;5049965;28;20738;-69
2023/06/23 05:17:49;;;;;;;11.93;6.73;;;16.80;99.90;;;;;;5052505;28;20423;-69
2023/06/23 05:20:19;;;;;;;15.83;7.90;;;16.90;99.90;;;;;;5063469;28;20443;-69
2023/06/23 05:22:48;;;;;;;13.10;7.53;;;16.90;99.90;;;;;;5049997;28;20537;-69
2023/06/23 05:25:16;;;;;;;12.97;7.50;;;17.00;99.90;;;;;;5049545;28;20471;-69
2023/06/23 05:27:44;;;;;;;13.40;8.57;;;17.10;99.90;;;;;;5050070;28;20424;-69
2023/06/23 05:30:15;;;;;;;13.10;6.53;;;17.20;99.90;;;;;;5050106;28;20491;-69
2023/06/23 05:32:42;;;;;;;16.27;8.37;;;17.20;99.90;;;;;;5060107;28;20468;-69
2023/06/23 05:35:10;;;;;;;22.43;8.17;;;17.30;99.90;;;;;;5052899;28;20428;-69
2023/06/23 05:37:38;;;;;;;15.73;7.27;;;17.40;99.90;;;;;;5050299;28;20443;-69
2023/06/23 05:40:06;;;;;;;18.53;9.20;;;17.40;99.90;;;;;;5053915;28;20749;-69
2023/06/23 05:42:32;;;;;;;17.63;8.80;;;17.50;99.90;;;;;;5057715;28;20982;-69
2023/06/23 05:45:00;;;;;;;15.53;9.30;;;17.60;99.90;;;;;;5050275;28;20425;-68
2023/06/23 05:47:32;;;;;;;22.87;10.83;;;17.60;99.90;;;;;;5049245;28;20424;-68
2023/06/23 05:50:01;;;;;;;17.70;9.47;;;17.50;99.90;;;;;;5055693;28;20415;-69
2023/06/23 05:52:29;;;;;;;15.70;8.00;;;17.50;99.90;;;;;;5057038;28;20421;-67
2023/06/23 05:54:57;;;;;;;21.83;10.30;;;17.40;99.90;;;;;;5049482;28;20432;-67
2023/06/23 05:57:29;;;;;;;28.03;10.93;;;17.30;99.90;;;;;;5049590;28;20463;-69
2023/06/23 06:00:13;;;;;;;23.17;12.67;;;17.40;99.90;;;;;;5040426;28;20431;-69
2023/06/23 06:02:42;;;;;;;27.73;11.70;;;17.30;99.90;;;;;;5043938;28;20471;-69
2023/06/23 06:05:13;;;;;;;20.97;11.70;;;17.30;99.90;;;;;;5049163;28;20408;-69
2023/06/23 06:07:40;;;;;;;16.90;9.20;;;17.30;99.90;;;;;;5049309;28;20455;-68
2023/06/23 06:10:09;;;;;;;19.83;10.63;;;17.30;99.90;;;;;;5048062;28;20431;-68
2023/06/23 06:12:37;;;;;;;22.20;11.70;;;17.30;99.90;;;;;;5048082;28;20913;-69
2023/06/23 06:15:04;;;;;;;33.40;10.40;;;17.40;99.90;;;;;;5051730;28;20840;-66
2023/06/23 06:17:32;;;;;;;26.07;12.47;;;17.50;99.90;;;;;;5050714;28;20605;-65
2023/06/23 06:20:02;;;;;;;19.57;11.20;;;17.60;99.90;;;;;;5053154;28;20779;-65
2023/06/23 06:22:32;;;;;;;22.50;11.10;;;17.70;99.90;;;;;;5049760;28;20471;-65
2023/06/23 06:24:59;;;;;;;24.77;10.20;;;17.70;99.90;;;;;;5052019;28;20440;-66
2023/06/23 06:27:27;;;;;;;26.47;11.03;;;17.80;99.90;;;;;;5052497;28;20431;-70
2023/06/23 06:29:55;;;;;;;20.00;11.00;;;17.80;99.90;;;;;;5046428;28;20459;-68
2023/06/23 06:32:22;;;;;;;17.27;11.30;;;17.80;99.90;;;;;;5051562;28;20458;-68
2023/06/23 06:34:49;;;;;;;22.27;11.03;;;17.80;99.90;;;;;;5064309;28;20428;-70
2023/06/23 06:37:16;;;;;;;18.60;9.70;;;17.80;99.90;;;;;;5052957;28;20432;-69
2023/06/23 06:39:44;;;;;;;26.17;10.80;;;17.80;99.90;;;;;;5051261;28;20814;-69
2023/06/23 06:42:10;;;;;;;23.13;9.50;;;17.80;99.90;;;;;;5050564;28;20462;-69
2023/06/23 06:44:36;;;;;;;16.77;10.23;;;17.80;99.90;;;;;;5051985;28;20425;-69
2023/06/23 06:47:04;;;;;;;14.97;8.67;;;17.80;99.90;;;;;;5051101;28;20204;-70
2023/06/23 06:49:31;;;;;;;19.13;10.50;;;18.00;99.90;;;;;;5051887;28;20193;-69
2023/06/23 06:51:59;;;;;;;17.97;9.10;;;18.00;99.90;;;;;;5050302;28;20562;-69
2023/06/23 06:54:26;;;;;;;25.27;9.67;;;18.00;99.90;;;;;;5062537;28;20948;-69
2023/06/23 06:56:54;;;;;;;15.40;8.17;;;18.10;99.90;;;;;;5052073;28;20412;-69
2023/06/23 06:59:20;;;;;;;15.57;9.33;;;18.20;99.90;;;;;;5063859;28;20430;-70
2023/06/23 07:01:47;;;;;;;19.73;9.17;;;18.20;99.90;;;;;;5051162;28;20744;-69
2023/06/23 07:04:13;;;;;;;17.37;8.53;;;18.30;99.90;;;;;;5052281;28;20189;-68
2023/06/23 07:06:40;;;;;;;22.20;8.70;;;18.40;99.90;;;;;;5051266;28;20519;-70
2023/06/23 07:09:06;;;;;;;21.20;9.50;;;18.40;99.90;;;;;;5051149;28;20497;-70
2023/06/23 07:11:32;;;;;;;13.87;8.13;;;18.40;99.90;;;;;;5050704;28;20460;-69
2023/06/23 07:13:59;;;;;;;18.47;9.80;;;18.60;99.90;;;;;;5051526;28;20460;-69
2023/06/23 07:16:30;;;;;;;19.30;8.70;;;18.70;99.90;;;;;;5047800;28;20209;-69
2023/06/23 07:18:59;;;;;;;21.60;8.93;;;18.70;99.90;;;;;;5055413;28;20480;-69
2023/06/23 07:21:24;;;;;;;13.43;8.07;;;18.80;99.90;;;;;;5051851;28;20518;-69
2023/06/23 07:23:50;;;;;;;12.60;7.10;;;18.70;99.90;;;;;;5046072;28;20503;-70
2023/06/23 07:26:16;;;;;;;17.90;8.87;;;18.70;99.90;;;;;;5050716;28;20181;-69
2023/06/23 07:28:41;;;;;;;13.70;7.43;;;18.90;99.90;;;;;;5051100;28;20590;-70
2023/06/23 07:31:07;;;;;;;10.40;6.80;;;19.00;99.90;;;;;;5049392;28;20637;-71
2023/06/23 07:33:32;;;;;;;15.33;8.40;;;19.10;99.90;;;;;;5053351;28;20189;-68
2023/06/23 07:35:58;;;;;;;16.87;8.20;;;19.10;99.90;;;;;;5050642;28;20209;-70
2023/06/23 07:38:24;;;;;;;12.50;6.30;;;19.20;99.90;;;;;;5046934;28;20189;-69
2023/06/23 07:40:49;;;;;;;14.27;7.43;;;19.30;99.90;;;;;;5055485;28;20235;-69
2023/06/23 07:43:15;;;;;;;13.50;7.10;;;19.50;99.90;;;;;;5050203;28;20217;-70
2023/06/23 07:45:41;;;;;;;12.10;6.03;;;19.90;99.90;;;;;;5050347;28;20186;-70
2023/06/23 07:48:07;;;;;;;13.27;7.10;;;20.20;99.90;;;;;;5050109;28;20946;-70
2023/06/23 07:50:32;;;;;;;17.10;6.93;;;20.40;99.90;;;;;;5050813;28;20913;-70
2023/06/23 07:52:58;;;;;;;10.37;5.33;;;20.40;99.60;;;;;;5050687;28;20178;-69
2023/06/23 07:55:24;;;;;;;15.30;6.30;;;20.80;98.80;;;;;;5050264;28;20639;-70
2023/06/23 07:57:49;;;;;;;14.23;5.27;;;20.90;98.50;;;;;;5050974;28;20189;-70
2023/06/23 08:00:16;;;;;;;12.90;4.97;;;21.40;97.40;;;;;;5050543;28;20185;-70
2023/06/23 08:02:41;;;;;;;9.23;5.00;;;21.40;96.60;;;;;;5049866;28;20217;-70
2023/06/23 08:05:08;;;;;;;11.07;5.57;;;21.70;96.60;;;;;;5050981;28;20430;-71
2023/06/23 08:07:34;;;;;;;10.37;4.90;;;21.90;96.30;;;;;;5051149;28;20712;-69
2023/06/23 08:09:59;;;;;;;12.60;4.90;;;21.50;96.20;;;;;;5032372;28;20535;-70
2023/06/23 08:12:25;;;;;;;8.80;4.40;;;20.90;96.70;;;;;;5048194;28;20194;-70
2023/06/23 08:14:50;;;;;;;11.70;5.63;;;20.70;97.10;;;;;;5050269;28;20189;-70
2023/06/23 08:17:16;;;;;;;10.23;3.90;;;20.50;96.40;;;;;;5049936;28;20185;-70
2023/06/23 08:19:43;;;;;;;13.40;4.63;;;20.30;96.70;;;;;;5053519;28;20217;-70
2023/06/23 08:22:09;;;;;;;7.37;4.23;;;20.10;96.40;;;;;;5049469;28;20212;-70
2023/06/23 08:24:35;;;;;;;11.60;5.23;;;20.30;96.70;;;;;;5049908;28;20448;-70
2023/06/23 08:27:00;;;;;;;8.77;4.40;;;20.20;97.20;;;;;;5051816;28;20189;-69
2023/06/23 08:29:26;;;;;;;12.93;4.30;;;20.50;97.60;;;;;;5053125;28;20184;-69
2023/06/23 08:31:52;;;;;;;11.80;5.80;;;21.20;96.60;;;;;;5052621;28;20232;-69
2023/06/23 08:34:18;;;;;;;8.77;4.87;;;21.40;95.90;;;;;;5052036;28;20247;-70
2023/06/23 08:36:44;;;;;;;7.70;3.80;;;21.70;96.00;;;;;;5054640;28;21091;-71
2023/06/23 08:39:10;;;;;;;6.17;3.60;;;22.60;94.70;;;;;;5049525;28;20185;-70
2023/06/23 08:41:39;;;;;;;11.50;4.60;;;22.70;93.20;;;;;;5049172;28;20427;-70
2023/06/23 08:44:06;;;;;;;11.77;4.60;;;22.20;92.80;;;;;;5042819;28;20233;-71
2023/06/23 08:46:34;;;;;;;6.67;4.47;;;22.30;93.40;;;;;;5048554;28;20870;-71
2023/06/23 08:49:05;;;;;;;8.67;4.80;;;22.40;94.00;;;;;;5048787;28;20416;-71
2023/06/23 08:51:32;;;;;;;8.90;4.10;;;22.20;94.10;;;;;;5048949;28;20415;-69
2023/06/23 08:53:58;;;;;;;8.60;3.80;;;21.80;94.00;;;;;;5049054;28;20554;-70
2023/06/23 08:56:25;;;;;;;12.23;4.67;;;22.10;94.20;;;;;;5055872;28;20556;-71
2023/06/23 08:58:51;;;;;;;7.20;4.27;;;22.60;93.50;;;;;;5055758;28;20242;-70
2023/06/23 09:01:16;;;;;;;9.87;5.53;;;22.80;93.00;;;;;;5050820;28;20431;-70
2023/06/23 09:03:42;;;;;;;6.90;3.43;;;22.60;92.10;;;;;;5048836;28;20759;-70
2023/06/23 09:06:09;;;;;;;8.80;4.13;;;23.10;92.00;;;;;;5049239;28;20205;-70
2023/06/23 09:08:35;;;;;;;7.77;4.33;;;23.10;90.90;;;;;;5046876;28;20619;-70
2023/06/23 09:11:00;;;;;;;6.43;3.20;;;22.80;90.90;;;;;;5046781;28;20455;-69
2023/06/23 09:13:30;;;;;;;7.70;3.67;;;22.50;91.80;;;;;;5049885;28;20622;-71
2023/06/23 09:15:56;;;;;;;9.40;3.80;;;22.80;92.00;;;;;;5049655;28;20691;-71
2023/06/23 09:18:22;;;;;;;7.10;3.70;;;23.20;91.30;;;;;;5049301;28;20923;-71
2023/06/23 09:20:49;;;;;;;6.77;3.30;;;23.10;90.90;;;;;;5048620;28;20439;-70
2023/06/23 09:23:15;;;;;;;7.53;4.10;;;23.00;90.70;;;;;;5048547;28;20224;-70
2023/06/23 09:25:48;;;;;;;4.87;3.27;;;22.30;90.70;;;;;;5048682;28;21291;-71
2023/06/23 09:28:23;;;;;;;9.80;3.90;;;22.30;91.30;;;;;;5049299;28;20249;-70
2023/06/23 09:30:49;;;;;;;7.47;4.00;;;21.90;91.00;;;;;;5045495;28;20423;-71
2023/06/23 09:33:18;;;;;;;9.20;2.70;;;21.60;91.80;;;;;;5050185;28;20424;-69
2023/06/23 09:35:50;;;;;;;5.70;2.73;;;21.50;92.40;;;;;;5051381;28;20455;-71
2023/06/23 09:38:26;;;;;;;9.83;3.40;;;21.40;92.60;;;;;;5050253;28;20419;-71
2023/06/23 09:41:10;;;;;;;6.60;3.07;;;22.30;91.40;;;;;;5048038;28;20427;-71
2023/06/23 09:43:52;;;;;;;5.30;3.60;;;22.50;91.00;;;;;;5047996;28;20462;-71
2023/06/23 09:46:22;;;;;;;9.40;4.07;;;22.60;91.40;;;;;;5047387;28;20424;-71
2023/06/23 09:48:49;;;;;;;5.97;3.27;;;22.80;90.80;;;;;;5051389;28;20455;-71
2023/06/23 09:51:18;;;;;;;11.33;3.27;;;23.30;90.80;;;;;;5052293;28;20495;-71
2023/06/23 09:53:45;;;;;;;7.53;3.70;;;23.00;91.00;;;;;;5052480;28;20484;-71
2023/06/23 09:56:18;;;;;;;7.77;3.63;;;22.50;91.30;;;;;;5052136;28;20828;-70
2023/06/23 09:58:44;;;;;;;4.30;2.93;;;22.10;91.50;;;;;;5051395;28;20903;-70
2023/06/23 10:01:12;;;;;;;9.43;4.07;;;21.80;91.80;;;;;;5051821;28;20512;-71
2023/06/23 10:03:45;;;;;;;6.90;3.90;;;22.10;91.50;;;;;;5052459;28;20558;-70
2023/06/23 10:06:34;;;;;;;5.57;2.90;;;22.60;91.70;;;;;;5052277;28;20465;-71
2023/06/23 10:09:02;;;;;;;6.00;3.00;;;22.70;90.40;;;;;;5050072;28;20416;-71
2023/06/23 10:11:35;;;;;;;6.20;3.43;;;22.90;90.50;;;;;;5050328;28;20419;-76
2023/06/23 10:14:06;;;;;;;6.70;3.00;;;23.30;91.00;;;;;;5053722;28;20446;-76
2023/06/23 10:16:35;;;;;;;6.83;3.33;;;23.70;89.00;;;;;;5058740;28;21161;-77
2023/06/23 10:19:02;;;;;;;6.30;2.50;;;24.20;86.90;;;;;;5053995;28;20419;-76
2023/06/23 10:21:30;;;;;;;7.40;4.00;;;24.40;86.60;;;;;;5038907;28;20512;-75
2023/06/23 10:24:01;;;;;;;6.60;2.90;;;24.80;85.40;;;;;;5057727;28;20287;-75
2023/06/23 10:26:29;;;;;;;7.67;4.23;;;24.60;84.60;;;;;;5055080;28;20420;-76
2023/06/23 10:28:58;;;;;;;10.93;3.30;;;24.20;86.90;;;;;;5058770;28;20462;-75
2023/06/23 10:31:29;;;;;;;8.70;3.53;;;24.00;87.60;;;;;;5058096;28;20436;-75
2023/06/23 10:33:58;;;;;;;4.53;2.43;;;23.50;85.60;;;;;;5056859;28;20457;-75
2023/06/23 10:36:24;;;;;;;4.97;2.87;;;22.80;85.50;;;;;;5053921;28;20475;-75
2023/06/23 10:38:53;;;;;;;5.80;3.03;;;22.80;86.20;;;;;;5058677;28;20446;-75
2023/06/23 10:41:20;;;;;;;5.27;2.83;;;23.00;87.20;;;;;;5052131;28;20423;-75
2023/06/23 10:43:48;;;;;;;6.00;3.50;;;23.20;88.00;;;;;;5055318;28;20829;-76
2023/06/23 10:46:14;;;;;;;10.70;4.10;;;23.00;89.10;;;;;;5051450;28;20412;-75
2023/06/23 10:48:41;;;;;;;5.47;2.83;;;22.80;87.30;;;;;;5052106;28;20419;-75
2023/06/23 10:51:09;;;;;;;4.40;2.20;;;22.50;87.70;;;;;;5041529;28;20435;-74
2023/06/23 10:53:45;;;;;;;5.87;2.50;;;22.50;87.70;;;;;;5056783;28;20426;-75
2023/06/23 10:56:28;;;;;;;6.13;3.27;;;22.80;85.90;;;;;;5053397;28;21356;-74
2023/06/23 10:58:54;;;;;;;6.80;3.30;;;22.90;86.40;;;;;;5051792;28;20499;-74
2023/06/23 11:01:19;;;;;;;5.90;3.10;;;23.00;87.20;;;;;;5058347;28;20444;-75
2023/06/23 11:03:49;;;;;;;5.73;3.10;;;23.30;87.80;;;;;;5052219;28;20704;-76
2023/06/23 11:06:34;;;;;;;3.60;2.40;;;23.50;86.40;;;;;;5056153;28;20177;-75
2023/06/23 11:09:01;;;;;;;6.80;3.00;;;23.60;84.90;;;;;;5057800;28;20409;-74
2023/06/23 11:11:32;;;;;;;6.27;2.50;;;23.30;84.90;;;;;;5059628;28;20817;-75
2023/06/23 11:13:58;;;;;;;5.93;3.10;;;23.60;86.30;;;;;;5052819;28;20411;-74
2023/06/23 11:16:34;;;;;;;3.90;1.70;;;23.80;84.40;;;;;;5052404;28;20449;-75
2023/06/23 11:19:02;;;;;;;13.63;2.83;;;24.20;83.10;;;;;;5055991;28;20414;-74
2023/06/23 11:21:40;;;;;;;4.63;3.00;;;24.00;83.70;;;;;;5061805;28;20706;-73
2023/06/23 11:24:06;;;;;;;4.10;2.43;;;23.60;82.40;;;;;;5061365;28;20505;-69
2023/06/23 11:26:32;;;;;;;13.53;2.60;;;23.50;85.00;;;;;;5059858;28;20499;-70
2023/06/23 11:28:58;;;;;;;4.40;2.60;;;23.70;82.40;;;;;;5051988;28;20427;-69
2023/06/23 11:31:30;;;;;;;6.10;2.20;;;23.80;84.00;;;;;;5057164;28;20634;-69
2023/06/23 11:33:55;;;;;;;4.47;2.07;;;23.90;80.50;;;;;;5064100;28;20477;-69
2023/06/23 11:36:24;;;;;;;4.70;2.57;;;24.10;81.60;;;;;;5058682;28;20847;-76
2023/06/23 11:38:51;;;;;;;4.17;2.27;;;24.00;82.00;;;;;;5054607;28;20189;-75
2023/06/23 11:41:43;;;;;;;4.87;1.80;;;23.50;80.50;;;;;;5053904;28;20763;-74
2023/06/23 11:44:10;;;;;;;5.00;2.13;;;23.10;80.90;;;;;;5047062;28;20557;-75
2023/06/23 11:46:36;;;;;;;4.80;2.13;;;22.80;82.90;;;;;;5068616;28;20430;-76
2023/06/23 11:49:12;;;;;;;4.87;2.70;;;22.60;83.10;;;;;;5034673;28;20420;-76
2023/06/23 11:51:38;;;;;;;6.67;3.03;;;22.40;83.90;;;;;;5052502;28;20530;-75
2023/06/23 11:54:05;;;;;;;4.87;2.70;;;22.30;84.60;;;;;;5051924;28;20867;-76
2023/06/23 11:56:32;;;;;;;5.80;2.50;;;22.20;84.40;;;;;;5045414;28;20423;-74
2023/06/23 11:59:03;;;;;;;3.40;1.80;;;22.10;84.20;;;;;;5059386;28;20412;-74
2023/06/23 12:01:28;;;;;;;5.00;1.83;;;22.00;84.50;;;;;;5060143;28;20411;-74
2023/06/23 12:03:54;;;;;;;5.33;2.37;;;22.00;85.90;;;;;;5072009;28;20792;-76
2023/06/23 12:06:20;;;;;;;4.03;2.57;;;22.20;84.50;;;;;;5034981;28;20173;-75
2023/06/23 12:08:50;;;;;;;4.40;2.23;;;22.50;83.40;;;;;;5053004;28;20287;-74
2023/06/23 12:11:20;;;;;;;6.03;1.70;;;22.80;80.80;;;;;;5052213;28;20412;-74
2023/06/23 12:13:48;;;;;;;3.97;2.27;;;23.10;80.00;;;;;;5062877;28;20443;-75
2023/06/23 12:16:14;;;;;;;4.10;2.23;;;23.10;80.10;;;;;;5053387;28;20448;-74
2023/06/23 12:18:46;;;;;;;4.50;2.20;;;23.30;80.00;;;;;;5055934;28;20938;-74
2023/06/23 12:21:14;;;;;;;10.40;2.57;;;23.70;82.10;;;;;;5062895;28;20568;-74
2023/06/23 12:23:41;;;;;;;3.20;1.93;;;23.90;79.50;;;;;;5069709;28;20550;-74
2023/06/23 12:26:07;;;;;;;3.70;1.97;;;23.90;79.90;;;;;;5052165;28;20470;-75
2023/06/23 12:28:33;;;;;;;4.60;2.10;;;23.70;79.80;;;;;;5056571;28;20501;-75
2023/06/23 12:30:58;;;;;;;4.03;1.67;;;23.30;80.40;;;;;;5060978;28;20503;-74
2023/06/23 12:33:29;;;;;;;4.60;2.27;;;23.10;83.00;;;;;;5040860;28;20181;-74
2023/06/23 12:35:58;;;;;;;5.07;2.33;;;23.30;85.50;;;;;;5062251;28;20212;-73
2023/06/23 12:38:24;;;;;;;3.10;2.13;;;23.50;83.20;;;;;;5055424;28;20521;-74
2023/06/23 12:40:51;;;;;;;5.53;3.03;;;23.70;84.00;;;;;;5071550;28;20946;-75
2023/06/23 12:43:18;;;;;;;5.13;2.47;;;24.00;83.40;;;;;;5055243;28;20200;-75
2023/06/23 12:45:46;;;;;;;4.67;2.33;;;24.40;83.70;;;;;;5051168;28;20904;-74
2023/06/23 12:48:12;;;;;;;4.43;2.00;;;24.30;82.40;;;;;;5064826;28;20451;-74
2023/06/23 12:50:42;;;;;;;5.37;2.40;;;24.10;78.20;;;;;;5051004;28;20454;-75